Terminal Aerodrome Forecast
Issued by NWS Memphis, TN

Home | Current Version | Previous Version | Text Only | Print | Product List | Glossary On
Versions: 1 2 3 4 5 6 7 8 9 10 11 12 13 14
000
FTUS44 KMEG 030520
TAFJBR
TAF
KJBR 030520Z 0306/0406 04004KT P6SM OVC016
     FM030800 07005KT 4SM -DZ BR OVC007
     FM031500 21010KT 5SM -DZ OVC010
     FM032000 21012G18KT 4SM BR OVC008
     FM040200 21010KT 4SM -RA BR OVC004=

USA.gov is the U.S. government's official web portal to all federal, state and local government web resources and services.